Polarstern — DBLK — position and weather

sailwx.info

Track history (hours):
 
Tides and Currents Weather Stations Pressure Air Temp Water Temp Dewpoint Dewpoint Depression Visibility Wind Speed Wind Dir Waves Ship Positions

Oceanographic research ship Polarstern (Germany)

Detailed information on ship capabilities available from University of Delaware's Ocean Information Center and ARCUS's ALIAS (Arctic Logistics Information and Support) project.

Last reported at 2016-Sep-27 17:00 UTC. Time now 2016-Sep-27 18:51 UTC.
Position N 86°48' E 061°48'.

Length 117.9 m; beam 25 m; draft 10.7 m.

MMSI: 211202460.

Wind from 310 at 12 knots

Barometer 1001.6 mb
Air temperature -5.1 ° C
Dewpoint -5.7 ° C
Water temperature -1.8 ° C

Date/timePositionNaut miles runAvg speedWind from/ knotsBaromVisibWave heightAir tempDewpointWater temp
2016-Sep-27 17:00N 86°48' E 061°48'6 6.0 310 / 121001.6 -5.1-5.7-1.8
2016-Sep-27 16:00N 86°42' E 061°36'0 0.3 290 / 141001.8 -5.2-5.9-1.8
2016-Sep-27 15:00N 86°42' E 061°42'0 0.0 300 / 161001.8 5.4 -5.2-6.1-1.8
2016-Sep-27 14:00N 86°42' E 061°42'0 0.3 290 / 161001.8 -4.6-5.2-1.8
2016-Sep-27 13:00N 86°42' E 061°48'0 0.3 260 / 141002.0 -4.8-5.0-1.8
2016-Sep-27 12:00N 86°42' E 061°42'0 0.0 260 / 161002.2 2.2 -5.6-5.9-1.8
2016-Sep-27 11:00N 86°42' E 061°42'0 0.0 260 / 161002.6 -6.4-6.8-1.8
2016-Sep-27 10:00N 86°42' E 061°42'1 0.7 260 / 161002.8 -6.7-7.4-1.8
2016-Sep-27 09:00N 86°42' E 061°30'1 1.0 250 / 161002.6 5.4 -6.5-7.4-1.8
2016-Sep-27 08:00N 86°42' E 061°48'0 0.3 240 / 161002.8 -6.2-7.7-1.7
2016-Sep-27 07:00N 86°42' E 061°42'0 0.3 220 / 171002.9 -6.1-7.0-1.7
2016-Sep-27 06:00N 86°42' E 061°36'6 6.0 220 / 191002.8 0.5 -6.1-6.7-1.8
2016-Sep-27 05:00N 86°48' E 061°42'1 0.7 210 / 141003.2 -5.2-5.9-1.9
2016-Sep-27 04:00N 86°48' E 061°54'0 0.3 240 / 141003.9 -4.7-5.1-1.7
2016-Sep-27 03:00N 86°48' E 061°48'0 0.0 250 / 161004.1 2.2 -4.0-4.9-1.7
2016-Sep-27 02:00N 86°48' E 061°48'0 0.0 220 / 101004.2 -3.2-3.5-1.7
2016-Sep-27 01:00N 86°48' E 061°48'0 0.0 240 / 61004.4 -3.2-3.4-1.7
2016-Sep-27 00:00N 86°48' E 061°48'1 1.0 280 / 81004.9 -2.9-3.2-1.7
2016-Sep-26 23:00N 86°48' E 061°30'6 6.4 290 / 101005.2 -2.2-3.0-1.7
2016-Sep-26 22:00N 86°48' E 059°36'6 6.2 300 / 101005.0 -2.8-3.0-1.8
2016-Sep-26 21:00N 86°54' E 059°06'2 1.6 310 / 121005.1 -2.0-2.2-1.9
2016-Sep-26 20:00N 86°54' E 058°36'0 0.3 310 / 141004.9 -1.9-2.3-1.7
2016-Sep-26 19:00N 86°54' E 058°30'0 0.3 310 / 141004.6 -1.8-1.8-1.7
2016-Sep-26 18:00N 86°54' E 058°36'6 6.1 300 / 141004.6 -1.8-2.2-1.9
2016-Sep-26 17:00N 86°48' E 058°18'0 0.0 300 / 141004.6 -1.9-2.2-1.8
2016-Sep-26 16:00N 86°48' E 058°18'0 0.0 290 / 141004.6 -2.1-2.4-1.7
2016-Sep-26 15:00N 86°48' E 058°18'0 0.3 290 / 141004.4 2.2 -2.1-2.3-1.8
2016-Sep-26 14:00N 86°48' E 058°12'0 0.0 280 / 121004.5 -2.2-2.5-1.7
2016-Sep-26 13:00N 86°48' E 058°12'0 0.0 290 / 121004.4 -2.1-2.2-1.8
2016-Sep-26 12:00N 86°48' E 058°12'0 0.3 280 / 121004.6 1.1 -2.1-2.4-1.8
2016-Sep-26 11:00N 86°48' E 058°18'0 0.0 280 / 101004.6 -2.3-2.7-1.8
2016-Sep-26 10:00N 86°48' E 058°18'0 0.0 300 / 101004.6 -2.4-2.6-1.8
2016-Sep-26 09:00N 86°48' E 058°18'0 0.0 300 / 121004.6 1.1 -2.4-2.8-1.8
2016-Sep-26 08:00N 86°48' E 058°18'0 0.3 310 / 121004.2 -2.6-3.1-1.8
2016-Sep-26 07:00N 86°48' E 058°12'0 0.0 320 / 121003.9 -2.6-2.8-1.7
2016-Sep-26 06:00N 86°48' E 058°12'0 0.0 320 / 141003.6 5.4 -2.5-2.9-1.7
2016-Sep-26 05:00N 86°48' E 058°12'0 0.0 330 / 121003.4 -2.2-2.3-1.8
2016-Sep-26 04:00N 86°48' E 058°12'6 6.0 330 / 141003.1 -2.1-2.2-1.9
2016-Sep-26 03:00N 86°54' E 058°00'5 5.2 320 / 141002.9 1.1 -2.1-2.1-1.9
2016-Sep-26 02:00N 86°54' E 056°24'2 1.9 320 / 141002.8 -2.4-2.5-1.9
2016-Sep-26 01:00N 86°54' E 055°48'0 0.0 310 / 121002.4 -3.0-3.2-1.7
2016-Sep-26 00:00N 86°54' E 055°48'0 0.3 310 / 121002.4 -3.6-4.0-1.7
2016-Sep-25 23:00N 86°54' E 055°54'0 0.0 300 / 121002.5 -4.2-4.6-1.8
2016-Sep-25 22:00N 86°54' E 055°54'6 6.0 300 / 121002.2 -4.8-5.5-1.8
2016-Sep-25 21:00N 87°00' E 055°54'0 0.3 280 / 121002.1 -5.7-6.7-1.8
2016-Sep-25 20:00N 87°00' E 055°48'0 0.3 270 / 121002.5 -6.2-6.9-1.7
2016-Sep-25 19:00N 87°00' E 055°42'1 0.6 270 / 161002.3 -6.2-6.9-1.8
2016-Sep-25 18:00N 87°00' E 055°30'1 0.3 270 / 191002.6 -5.3-7.7-1.8
2016-Sep-25 16:00N 87°00' E 055°42'0 0.3 240 / 251002.9 -3.7-5.1-1.7
2016-Sep-25 15:00N 87°00' E 055°36'0 0.0 230 / 211003.7 5.4 -3.0-3.5-1.8
2016-Sep-25 14:00N 87°00' E 055°36'6 6.0 230 / 211004.5 -2.9-3.1-1.7
2016-Sep-25 13:00N 86°54' E 055°30'6 6.1 240 / 191005.5 -3.0-3.6-1.9
2016-Sep-25 12:00N 87°00' E 055°48'2 1.9 230 / 171006.4 1.1 -2.8-3.0-1.9
2016-Sep-25 11:00N 87°00' E 056°24'0 0.3 220 / 171007.1 -4.5-4.8-1.7
2016-Sep-25 10:00N 87°00' E 056°18'0 0.3 210 / 171007.4 -5.5-5.9-1.8
2016-Sep-25 09:00N 87°00' E 056°12'1 0.6 210 / 161007.9 0.5 -6.5-6.9-1.8
2016-Sep-25 08:00N 87°00' E 056°00'6 6.0 210 / 161008.2 -7.1-7.8-1.8
2016-Sep-25 07:00N 86°54' E 055°54'7 6.8 200 / 121008.5 -7.7-8.2-1.8
2016-Sep-25 06:00N 87°00' E 056°54'0 0.0 180 / 101008.3 5.4 -7.9-8.8-1.6
2016-Sep-25 05:00N 87°00' E 056°54'0 0.0 160 / 81008.3 -9.2-9.9-1.7
2016-Sep-25 04:00N 87°00' E 056°54'0 0.2 140 / 61008.4 -9.7-10.7-1.7
2016-Sep-25 02:00N 87°00' E 057°00'3 3.5 100 / 41007.7 -9.3-10.0-1.9
2016-Sep-25 01:00N 87°00' E 055°54'0 0.0 070 / 41007.1 -9.3-10.0-1.8
2016-Sep-25 00:00N 87°00' E 055°54'0 0.0 070 / 81006.5 -8.9-9.4-1.8
2016-Sep-24 23:00N 87°00' E 055°54'0 0.3 070 / 101005.8 -8.8-9.7-1.8
2016-Sep-24 22:00N 87°00' E 055°48'0 0.0 060 / 101004.9 -6.9-7.6-1.7
2016-Sep-24 21:00N 87°00' E 055°48'0 0.0 040 / 121003.8 -4.7-5.3-1.7
2016-Sep-24 20:00N 87°00' E 055°48'1 0.6 340 / 161002.9 -3.4-3.5-1.7
2016-Sep-24 19:00N 87°00' E 055°36'0 0.0 340 / 171002.1 -3.4-4.1-1.8
2016-Sep-24 18:00N 87°00' E 055°36'0 0.0 340 / 141001.4 -3.3-4.4-1.8
2016-Sep-24 17:00N 87°00' E 055°36'1 0.6 340 / 191000.6 -3.2-4.0-1.8
2016-Sep-24 16:00N 87°00' E 055°48'6 6.0 320 / 23999.5 -2.7-2.8-1.9
2016-Sep-24 15:00N 86°54' E 055°54'6 0.9 310 / 25999.3 0.5 -3.4-3.8-1.7
2016-Sep-24 08:00N 87°00' E 055°36'6 6.0 300 / 371000.2 -3.4-3.9-1.9
2016-Sep-24 07:00N 86°54' E 055°36'1 0.6 280 / 371001.0 -3.8-4.3-1.7
2016-Sep-24 05:00N 86°54' E 055°12'1 0.6 270 / 311003.5 -6.3-7.0-1.7
2016-Sep-24 04:00N 86°54' E 055°00'1 0.6 270 / 311004.8 -6.9-7.6-1.7
2016-Sep-24 03:00N 86°54' E 054°48'0 0.3 260 / 271005.8 1.1 -7.7-8.8-1.7
2016-Sep-24 02:00N 86°54' E 054°42'0 0.3 260 / 231007.0 -8.2-8.9-1.8
2016-Sep-24 01:00N 86°54' E 054°36'6 6.0 280 / 191008.1 -9.1-10.0-1.8
2016-Sep-24 00:00N 87°00' E 054°30'0 0.3 290 / 171008.6 -9.4-10.7-1.9
2016-Sep-23 23:00N 87°00' E 054°36'7 7.1 290 / 191008.7 -10.9-1.9
2016-Sep-23 22:00N 86°54' E 055°48'5 4.9 300 / 141008.4 -11.2-1.8
2016-Sep-23 21:00N 86°54' E 057°18'7 7.4 320 / 161007.7 -11.7-1.8
2016-Sep-23 20:00N 86°48' E 058°36'2 1.7 340 / 161007.0 -11.4-1.9
2016-Sep-23 19:00N 86°48' E 059°06'7 7.1 330 / 141006.1 -9.9-10.6-1.9
2016-Sep-23 18:00N 86°42' E 060°12'5 4.8 320 / 171004.9 -9.5-10.4-1.9
2016-Sep-23 17:00N 86°42' E 061°36'0 0.0 330 / 171003.8 -8.7-9.5-1.8
2016-Sep-23 16:00N 86°42' E 061°36'0 0.0 330 / 211002.9 -7.9-9.0-1.8
2016-Sep-23 15:00N 86°42' E 061°36'0 0.0 320 / 211002.1 2.2 -7.5-8.3-1.8
2016-Sep-23 14:00N 86°42' E 061°36'0 0.0 320 / 171001.4 -6.7-7.4-1.8
2016-Sep-23 13:00N 86°42' E 061°36'0 0.3 290 / 121001.4 -6.8-7.8-1.8
2016-Sep-23 12:00N 86°42' E 061°30'0 0.0 270 / 121001.4 1.1 -7.4-8.1-1.8
2016-Sep-23 11:00N 86°42' E 061°30'0 0.3 260 / 141001.8 -8.0-8.8-1.8
2016-Sep-23 10:00N 86°42' E 061°24'0 0.3 260 / 161002.1 -7.6-8.3-1.8
2016-Sep-23 09:00N 86°42' E 061°18'0 0.3 230 / 161002.2 2.2 -7.5-8.4-1.8
2016-Sep-23 08:00N 86°42' E 061°12'0 0.0 210 / 161002.8 -8.0-8.8-1.8
2016-Sep-23 07:00N 86°42' E 061°12'4 2.1 210 / 141003.2 -8.1-8.8-1.8
2016-Sep-23 05:00N 86°42' E 062°24'1 1.4 240 / 121004.3 -8.5-9.3-1.9
2016-Sep-23 04:00N 86°42' E 062°48'3 3.1 250 / 101004.3 -8.9-9.4-1.9
2016-Sep-23 03:00N 86°42' E 061°54'0 0.0 250 / 121004.7 5.4 -9.3-10.0-1.8
2016-Sep-23 02:00N 86°42' E 061°54'0 0.0 250 / 101004.9 -9.6-10.4-1.8
2016-Sep-23 01:00N 86°42' E 061°54'0 0.0 270 / 101005.1 -9.4-10.2-1.8
2016-Sep-23 00:00N 86°42' E 061°54'0 0.0 270 / 101005.3 -9.3-10.0-1.8
2016-Sep-22 23:00N 86°42' E 061°54'0 0.0 280 / 121005.3 -9.1-9.9-1.8
2016-Sep-22 22:00N 86°42' E 061°54'0 0.3 280 / 121005.2 -8.8-9.5-1.8
2016-Sep-22 21:00N 86°42' E 061°48'1 0.2 280 / 161004.9 -8.5-9.3-1.9
2016-Sep-22 18:00N 86°42' E 061°36'1 0.7 280 / 161004.1 -8.2-8.7-1.9
2016-Sep-22 17:00N 86°42' E 061°24'1 0.7 300 / 171003.9 -8.2-8.8-1.9
2016-Sep-22 16:00N 86°42' E 061°36'12 6.0 290 / 211003.6 -7.4-8.0-1.9
2016-Sep-22 14:00N 86°54' E 062°00'0 0.0 260 / 211003.1 -6.5-8.0-1.8
2016-Sep-22 12:00N 86°54' E 062°00'1 1.0 250 / 231003.8 5.4 -7.4-8.8-1.9
2016-Sep-22 11:00N 86°54' E 061°42'0 0.3 240 / 191004.1 -7.9-8.6-1.7
2016-Sep-22 10:00N 86°54' E 061°36'1 0.6 240 / 171004.6 -8.2-9.2-1.7
2016-Sep-22 09:00N 86°54' E 061°24'0 0.3 240 / 191004.7 1.1 -7.5-8.4-1.8
2016-Sep-22 08:00N 86°54' E 061°18'2 1.9 240 / 161005.3 -7.4-8.7-1.9
2016-Sep-22 07:00N 86°54' E 060°42'6 6.5 250 / 171005.6 -7.2-8.1-1.9
2016-Sep-22 06:00N 86°54' E 058°42'0 0.3 250 / 141005.7 5.4 -6.7-7.3-1.8
2016-Sep-22 05:00N 86°54' E 058°36'0 0.3 240 / 121005.9 -6.2-7.0-1.8
2016-Sep-22 04:00N 86°54' E 058°30'0 0.3 240 / 121006.0 -6.0-6.7-1.8
2016-Sep-22 03:00N 86°54' E 058°24'1 1.3 260 / 101006.5 5.4 -5.6-6.8-1.9
2016-Sep-22 02:00N 86°54' E 058°00'0 0.0 260 / 121007.0 -5.2-6.1-1.8
2016-Sep-22 01:00N 86°54' E 058°00'1 0.6 230 / 81007.6 -4.9-5.6-1.9
2016-Sep-22 00:00N 86°54' E 058°12'6 6.0 220 / 81008.0 -4.8-5.8-1.9
2016-Sep-21 23:00N 87°00' E 058°18'0 0.0 250 / 61008.5 -4.8-6.0-1.8
2016-Sep-21 22:00N 87°00' E 058°18'0 0.0 260 / 61008.8 -5.0-6.0-1.8
2016-Sep-21 21:00N 87°00' E 058°18'0 0.0 270 / 61009.1 -5.0-5.9-1.8
2016-Sep-21 20:00N 87°00' E 058°18'0 0.0 280 / 61009.4 -4.9-6.2-1.8
2016-Sep-21 19:00N 87°00' E 058°18'0 0.0 290 / 61009.6 -4.9-6.3-1.8
2016-Sep-21 18:00N 87°00' E 058°18'0 0.0 290 / 101010.0 -4.7-6.1-1.8
2016-Sep-21 17:00N 87°00' E 058°18'0 0.3 270 / 121010.2 -4.6-5.9-1.8
2016-Sep-21 16:00N 87°00' E 058°12'0 0.3 250 / 141010.5 -4.3-5.4-1.8
2016-Sep-21 15:00N 87°00' E 058°06'0 0.3 250 / 141010.8 5.4 -4.3-4.8-1.8
2016-Sep-21 14:00N 87°00' E 058°00'0 0.0 240 / 141011.3 -4.4-4.8-1.8
2016-Sep-21 13:00N 87°00' E 058°00'0 0.0 230 / 141011.9 -4.4-4.9-1.8
2016-Sep-21 09:00N 87°00' E 058°00'1 0.9 240 / 101013.010.8 -5.1-5.3-1.9
2016-Sep-21 08:00N 87°00' E 058°18'0 0.0 270 / 81013.1 -4.8-7.4-1.8
2016-Sep-21 07:00N 87°00' E 058°18'0 0.0 290 / 61013.1 -4.8-7.0-1.8
2016-Sep-21 06:00N 87°00' E 058°18'0 0.3 290 / 101013.0 5.4 -4.6-7.9-1.9
2016-Sep-21 05:00N 87°00' E 058°12'0 0.3 310 / 121012.5 -4.6-7.0-1.9
2016-Sep-21 04:00N 87°00' E 058°18'0 0.3 300 / 141012.3 -4.9-6.4-1.8
2016-Sep-21 03:00N 87°00' E 058°12'0 0.0 300 / 121012.110.8 -5.2-5.9-1.8
2016-Sep-21 02:00N 87°00' E 058°12'0 0.0 300 / 121011.8 -5.1-5.6-1.8
2016-Sep-21 01:00N 87°00' E 058°12'0 0.0 300 / 121011.6 -5.2-5.6-1.8
2016-Sep-21 00:00N 87°00' E 058°12'0 0.0 320 / 141011.2 -5.4-5.9-1.7
2016-Sep-20 23:00N 87°00' E 058°12'0 0.0 320 / 141010.8 -5.5-6.2-1.8
2016-Sep-20 22:00N 87°00' E 058°12'0 0.0 320 / 161010.1 -5.7-6.3-1.8
2016-Sep-20 21:00N 87°00' E 058°12'5 4.7 330 / 161009.6 -6.0-6.7-1.9
2016-Sep-20 20:00N 87°00' E 059°42'6 6.2 340 / 161008.6 -7.2-8.4-1.9
2016-Sep-20 19:00N 86°54' E 060°12'6 6.0 340 / 191007.6 -7.6-8.0-1.9
2016-Sep-20 18:00N 86°48' E 060°18'6 6.3 340 / 211006.8 -7.7-8.2-1.9
2016-Sep-20 17:00N 86°42' E 060°54'1 0.7 330 / 211005.8 -7.2-7.9-1.9
2016-Sep-20 16:00N 86°42' E 061°06'0 0.0 330 / 211005.1 -6.8-7.7-1.8
2016-Sep-20 15:00N 86°42' E 061°06'0 0.0 330 / 211004.4 5.4 -6.4-7.2-1.8
2016-Sep-20 14:00N 86°42' E 061°06'0 0.0 330 / 231003.8 -6.5-7.3-1.8
2016-Sep-20 13:00N 86°42' E 061°06'0 0.0 330 / 211003.3 -6.5-7.4-1.8
2016-Sep-20 12:00N 86°42' E 061°06'   340 / 191002.6 5.4 -6.6-7.9-1.7
Track history (hours):
 
Tides and Currents Weather Stations Pressure Air Temp Water Temp Dewpoint Dewpoint Depression Visibility Wind Speed Wind Dir Waves Ship Positions

Oceanographic research ship Polarstern (Germany)

Detailed information on ship capabilities available from University of Delaware's Ocean Information Center and ARCUS's ALIAS (Arctic Logistics Information and Support) project.

Last reported at 2016-Sep-27 17:00 UTC. Time now 2016-Sep-27 18:51 UTC.
Position N 86°48' E 061°48'.

Length 117.9 m; beam 25 m; draft 10.7 m.

MMSI: 211202460.

Wind from 310 at 12 knots

Barometer 1001.6 mb
Air temperature -5.1 ° C
Dewpoint -5.7 ° C
Water temperature -1.8 ° C

Date/timePositionNaut miles runAvg speedWind from/ knotsBaromVisibWave heightAir tempDewpointWater temp
2016-Sep-27 17:00N 86°48' E 061°48'6 6.0 310 / 121001.6 -5.1-5.7-1.8
2016-Sep-27 16:00N 86°42' E 061°36'0 0.3 290 / 141001.8 -5.2-5.9-1.8
2016-Sep-27 15:00N 86°42' E 061°42'0 0.0 300 / 161001.8 5.4 -5.2-6.1-1.8
2016-Sep-27 14:00N 86°42' E 061°42'0 0.3 290 / 161001.8 -4.6-5.2-1.8
2016-Sep-27 13:00N 86°42' E 061°48'0 0.3 260 / 141002.0 -4.8-5.0-1.8
2016-Sep-27 12:00N 86°42' E 061°42'0 0.0 260 / 161002.2 2.2 -5.6-5.9-1.8
2016-Sep-27 11:00N 86°42' E 061°42'0 0.0 260 / 161002.6 -6.4-6.8-1.8
2016-Sep-27 10:00N 86°42' E 061°42'1 0.7 260 / 161002.8 -6.7-7.4-1.8
2016-Sep-27 09:00N 86°42' E 061°30'1 1.0 250 / 161002.6 5.4 -6.5-7.4-1.8
2016-Sep-27 08:00N 86°42' E 061°48'0 0.3 240 / 161002.8 -6.2-7.7-1.7
2016-Sep-27 07:00N 86°42' E 061°42'0 0.3 220 / 171002.9 -6.1-7.0-1.7
2016-Sep-27 06:00N 86°42' E 061°36'6 6.0 220 / 191002.8 0.5 -6.1-6.7-1.8
2016-Sep-27 05:00N 86°48' E 061°42'1 0.7 210 / 141003.2 -5.2-5.9-1.9
2016-Sep-27 04:00N 86°48' E 061°54'0 0.3 240 / 141003.9 -4.7-5.1-1.7
2016-Sep-27 03:00N 86°48' E 061°48'0 0.0 250 / 161004.1 2.2 -4.0-4.9-1.7
2016-Sep-27 02:00N 86°48' E 061°48'0 0.0 220 / 101004.2 -3.2-3.5-1.7
2016-Sep-27 01:00N 86°48' E 061°48'0 0.0 240 / 61004.4 -3.2-3.4-1.7
2016-Sep-27 00:00N 86°48' E 061°48'1 1.0 280 / 81004.9 -2.9-3.2-1.7
2016-Sep-26 23:00N 86°48' E 061°30'6 6.4 290 / 101005.2 -2.2-3.0-1.7
2016-Sep-26 22:00N 86°48' E 059°36'6 6.2 300 / 101005.0 -2.8-3.0-1.8
2016-Sep-26 21:00N 86°54' E 059°06'2 1.6 310 / 121005.1 -2.0-2.2-1.9
2016-Sep-26 20:00N 86°54' E 058°36'0 0.3 310 / 141004.9 -1.9-2.3-1.7
2016-Sep-26 19:00N 86°54' E 058°30'0 0.3 310 / 141004.6 -1.8-1.8-1.7
2016-Sep-26 18:00N 86°54' E 058°36'6 6.1 300 / 141004.6 -1.8-2.2-1.9
2016-Sep-26 17:00N 86°48' E 058°18'0 0.0 300 / 141004.6 -1.9-2.2-1.8
2016-Sep-26 16:00N 86°48' E 058°18'0 0.0 290 / 141004.6 -2.1-2.4-1.7
2016-Sep-26 15:00N 86°48' E 058°18'0 0.3 290 / 141004.4 2.2 -2.1-2.3-1.8
2016-Sep-26 14:00N 86°48' E 058°12'0 0.0 280 / 121004.5 -2.2-2.5-1.7
2016-Sep-26 13:00N 86°48' E 058°12'0 0.0 290 / 121004.4 -2.1-2.2-1.8
2016-Sep-26 12:00N 86°48' E 058°12'0 0.3 280 / 121004.6 1.1 -2.1-2.4-1.8
2016-Sep-26 11:00N 86°48' E 058°18'0 0.0 280 / 101004.6 -2.3-2.7-1.8
2016-Sep-26 10:00N 86°48' E 058°18'0 0.0 300 / 101004.6 -2.4-2.6-1.8
2016-Sep-26 09:00N 86°48' E 058°18'0 0.0 300 / 121004.6 1.1 -2.4-2.8-1.8
2016-Sep-26 08:00N 86°48' E 058°18'0 0.3 310 / 121004.2 -2.6-3.1-1.8
2016-Sep-26 07:00N 86°48' E 058°12'0 0.0 320 / 121003.9 -2.6-2.8-1.7
2016-Sep-26 06:00N 86°48' E 058°12'0 0.0 320 / 141003.6 5.4 -2.5-2.9-1.7
2016-Sep-26 05:00N 86°48' E 058°12'0 0.0 330 / 121003.4 -2.2-2.3-1.8
2016-Sep-26 04:00N 86°48' E 058°12'6 6.0 330 / 141003.1 -2.1-2.2-1.9
2016-Sep-26 03:00N 86°54' E 058°00'5 5.2 320 / 141002.9 1.1 -2.1-2.1-1.9
2016-Sep-26 02:00N 86°54' E 056°24'2 1.9 320 / 141002.8 -2.4-2.5-1.9
2016-Sep-26 01:00N 86°54' E 055°48'0 0.0 310 / 121002.4 -3.0-3.2-1.7
2016-Sep-26 00:00N 86°54' E 055°48'0 0.3 310 / 121002.4 -3.6-4.0-1.7
2016-Sep-25 23:00N 86°54' E 055°54'0 0.0 300 / 121002.5 -4.2-4.6-1.8
2016-Sep-25 22:00N 86°54' E 055°54'6 6.0 300 / 121002.2 -4.8-5.5-1.8
2016-Sep-25 21:00N 87°00' E 055°54'0 0.3 280 / 121002.1 -5.7-6.7-1.8
2016-Sep-25 20:00N 87°00' E 055°48'0 0.3 270 / 121002.5 -6.2-6.9-1.7
2016-Sep-25 19:00N 87°00' E 055°42'1 0.6 270 / 161002.3 -6.2-6.9-1.8
2016-Sep-25 18:00N 87°00' E 055°30'1 0.3 270 / 191002.6 -5.3-7.7-1.8
2016-Sep-25 16:00N 87°00' E 055°42'0 0.3 240 / 251002.9 -3.7-5.1-1.7
2016-Sep-25 15:00N 87°00' E 055°36'0 0.0 230 / 211003.7 5.4 -3.0-3.5-1.8
2016-Sep-25 14:00N 87°00' E 055°36'6 6.0 230 / 211004.5 -2.9-3.1-1.7
2016-Sep-25 13:00N 86°54' E 055°30'6 6.1 240 / 191005.5 -3.0-3.6-1.9
2016-Sep-25 12:00N 87°00' E 055°48'2 1.9 230 / 171006.4 1.1 -2.8-3.0-1.9
2016-Sep-25 11:00N 87°00' E 056°24'0 0.3 220 / 171007.1 -4.5-4.8-1.7
2016-Sep-25 10:00N 87°00' E 056°18'0 0.3 210 / 171007.4 -5.5-5.9-1.8
2016-Sep-25 09:00N 87°00' E 056°12'1 0.6 210 / 161007.9 0.5 -6.5-6.9-1.8
2016-Sep-25 08:00N 87°00' E 056°00'6 6.0 210 / 161008.2 -7.1-7.8-1.8
2016-Sep-25 07:00N 86°54' E 055°54'7 6.8 200 / 121008.5 -7.7-8.2-1.8
2016-Sep-25 06:00N 87°00' E 056°54'0 0.0 180 / 101008.3 5.4 -7.9-8.8-1.6
2016-Sep-25 05:00N 87°00' E 056°54'0 0.0 160 / 81008.3 -9.2-9.9-1.7
2016-Sep-25 04:00N 87°00' E 056°54'0 0.2 140 / 61008.4 -9.7-10.7-1.7
2016-Sep-25 02:00N 87°00' E 057°00'3 3.5 100 / 41007.7 -9.3-10.0-1.9
2016-Sep-25 01:00N 87°00' E 055°54'0 0.0 070 / 41007.1 -9.3-10.0-1.8
2016-Sep-25 00:00N 87°00' E 055°54'0 0.0 070 / 81006.5 -8.9-9.4-1.8
2016-Sep-24 23:00N 87°00' E 055°54'0 0.3 070 / 101005.8 -8.8-9.7-1.8
2016-Sep-24 22:00N 87°00' E 055°48'0 0.0 060 / 101004.9 -6.9-7.6-1.7
2016-Sep-24 21:00N 87°00' E 055°48'0 0.0 040 / 121003.8 -4.7-5.3-1.7
2016-Sep-24 20:00N 87°00' E 055°48'1 0.6 340 / 161002.9 -3.4-3.5-1.7
2016-Sep-24 19:00N 87°00' E 055°36'0 0.0 340 / 171002.1 -3.4-4.1-1.8
2016-Sep-24 18:00N 87°00' E 055°36'0 0.0 340 / 141001.4 -3.3-4.4-1.8
2016-Sep-24 17:00N 87°00' E 055°36'1 0.6 340 / 191000.6 -3.2-4.0-1.8
2016-Sep-24 16:00N 87°00' E 055°48'6 6.0 320 / 23999.5 -2.7-2.8-1.9
2016-Sep-24 15:00N 86°54' E 055°54'6 0.9 310 / 25999.3 0.5 -3.4-3.8-1.7
2016-Sep-24 08:00N 87°00' E 055°36'6 6.0 300 / 371000.2 -3.4-3.9-1.9
2016-Sep-24 07:00N 86°54' E 055°36'1 0.6 280 / 371001.0 -3.8-4.3-1.7
2016-Sep-24 05:00N 86°54' E 055°12'1 0.6 270 / 311003.5 -6.3-7.0-1.7
2016-Sep-24 04:00N 86°54' E 055°00'1 0.6 270 / 311004.8 -6.9-7.6-1.7
2016-Sep-24 03:00N 86°54' E 054°48'0 0.3 260 / 271005.8 1.1 -7.7-8.8-1.7
2016-Sep-24 02:00N 86°54' E 054°42'0 0.3 260 / 231007.0 -8.2-8.9-1.8
2016-Sep-24 01:00N 86°54' E 054°36'6 6.0 280 / 191008.1 -9.1-10.0-1.8
2016-Sep-24 00:00N 87°00' E 054°30'0 0.3 290 / 171008.6 -9.4-10.7-1.9
2016-Sep-23 23:00N 87°00' E 054°36'7 7.1 290 / 191008.7 -10.9-1.9
2016-Sep-23 22:00N 86°54' E 055°48'5 4.9 300 / 141008.4 -11.2-1.8
2016-Sep-23 21:00N 86°54' E 057°18'7 7.4 320 / 161007.7 -11.7-1.8
2016-Sep-23 20:00N 86°48' E 058°36'2 1.7 340 / 161007.0 -11.4-1.9
2016-Sep-23 19:00N 86°48' E 059°06'7 7.1 330 / 141006.1 -9.9-10.6-1.9
2016-Sep-23 18:00N 86°42' E 060°12'5 4.8 320 / 171004.9 -9.5-10.4-1.9
2016-Sep-23 17:00N 86°42' E 061°36'0 0.0 330 / 171003.8 -8.7-9.5-1.8
2016-Sep-23 16:00N 86°42' E 061°36'0 0.0 330 / 211002.9 -7.9-9.0-1.8
2016-Sep-23 15:00N 86°42' E 061°36'0 0.0 320 / 211002.1 2.2 -7.5-8.3-1.8
2016-Sep-23 14:00N 86°42' E 061°36'0 0.0 320 / 171001.4 -6.7-7.4-1.8
2016-Sep-23 13:00N 86°42' E 061°36'0 0.3 290 / 121001.4 -6.8-7.8-1.8
2016-Sep-23 12:00N 86°42' E 061°30'0 0.0 270 / 121001.4 1.1 -7.4-8.1-1.8
2016-Sep-23 11:00N 86°42' E 061°30'0 0.3 260 / 141001.8 -8.0-8.8-1.8
2016-Sep-23 10:00N 86°42' E 061°24'0 0.3 260 / 161002.1 -7.6-8.3-1.8
2016-Sep-23 09:00N 86°42' E 061°18'0 0.3 230 / 161002.2 2.2 -7.5-8.4-1.8
2016-Sep-23 08:00N 86°42' E 061°12'0 0.0 210 / 161002.8 -8.0-8.8-1.8
2016-Sep-23 07:00N 86°42' E 061°12'4 2.1 210 / 141003.2 -8.1-8.8-1.8
2016-Sep-23 05:00N 86°42' E 062°24'1 1.4 240 / 121004.3 -8.5-9.3-1.9
2016-Sep-23 04:00N 86°42' E 062°48'3 3.1 250 / 101004.3 -8.9-9.4-1.9
2016-Sep-23 03:00N 86°42' E 061°54'0 0.0 250 / 121004.7 5.4 -9.3-10.0-1.8
2016-Sep-23 02:00N 86°42' E 061°54'0 0.0 250 / 101004.9 -9.6-10.4-1.8
2016-Sep-23 01:00N 86°42' E 061°54'0 0.0 270 / 101005.1 -9.4-10.2-1.8
2016-Sep-23 00:00N 86°42' E 061°54'0 0.0 270 / 101005.3 -9.3-10.0-1.8
2016-Sep-22 23:00N 86°42' E 061°54'0 0.0 280 / 121005.3 -9.1-9.9-1.8
2016-Sep-22 22:00N 86°42' E 061°54'0 0.3 280 / 121005.2 -8.8-9.5-1.8
2016-Sep-22 21:00N 86°42' E 061°48'1 0.2 280 / 161004.9 -8.5-9.3-1.9
2016-Sep-22 18:00N 86°42' E 061°36'1 0.7 280 / 161004.1 -8.2-8.7-1.9
2016-Sep-22 17:00N 86°42' E 061°24'1 0.7 300 / 171003.9 -8.2-8.8-1.9
2016-Sep-22 16:00N 86°42' E 061°36'12 6.0 290 / 211003.6 -7.4-8.0-1.9
2016-Sep-22 14:00N 86°54' E 062°00'0 0.0 260 / 211003.1 -6.5-8.0-1.8
2016-Sep-22 12:00N 86°54' E 062°00'1 1.0 250 / 231003.8 5.4 -7.4-8.8-1.9
2016-Sep-22 11:00N 86°54' E 061°42'0 0.3 240 / 191004.1 -7.9-8.6-1.7
2016-Sep-22 10:00N 86°54' E 061°36'1 0.6 240 / 171004.6 -8.2-9.2-1.7
2016-Sep-22 09:00N 86°54' E 061°24'0 0.3 240 / 191004.7 1.1 -7.5-8.4-1.8
2016-Sep-22 08:00N 86°54' E 061°18'2 1.9 240 / 161005.3 -7.4-8.7-1.9
2016-Sep-22 07:00N 86°54' E 060°42'6 6.5 250 / 171005.6 -7.2-8.1-1.9
2016-Sep-22 06:00N 86°54' E 058°42'0 0.3 250 / 141005.7 5.4 -6.7-7.3-1.8
2016-Sep-22 05:00N 86°54' E 058°36'0 0.3 240 / 121005.9 -6.2-7.0-1.8
2016-Sep-22 04:00N 86°54' E 058°30'0 0.3 240 / 121006.0 -6.0-6.7-1.8
2016-Sep-22 03:00N 86°54' E 058°24'1 1.3 260 / 101006.5 5.4 -5.6-6.8-1.9
2016-Sep-22 02:00N 86°54' E 058°00'0 0.0 260 / 121007.0 -5.2-6.1-1.8
2016-Sep-22 01:00N 86°54' E 058°00'1 0.6 230 / 81007.6 -4.9-5.6-1.9
2016-Sep-22 00:00N 86°54' E 058°12'6 6.0 220 / 81008.0 -4.8-5.8-1.9
2016-Sep-21 23:00N 87°00' E 058°18'0 0.0 250 / 61008.5 -4.8-6.0-1.8
2016-Sep-21 22:00N 87°00' E 058°18'0 0.0 260 / 61008.8 -5.0-6.0-1.8
2016-Sep-21 21:00N 87°00' E 058°18'0 0.0 270 / 61009.1 -5.0-5.9-1.8
2016-Sep-21 20:00N 87°00' E 058°18'0 0.0 280 / 61009.4 -4.9-6.2-1.8
2016-Sep-21 19:00N 87°00' E 058°18'0 0.0 290 / 61009.6 -4.9-6.3-1.8
2016-Sep-21 18:00N 87°00' E 058°18'0 0.0 290 / 101010.0 -4.7-6.1-1.8
2016-Sep-21 17:00N 87°00' E 058°18'0 0.3 270 / 121010.2 -4.6-5.9-1.8
2016-Sep-21 16:00N 87°00' E 058°12'0 0.3 250 / 141010.5 -4.3-5.4-1.8
2016-Sep-21 15:00N 87°00' E 058°06'0 0.3 250 / 141010.8 5.4 -4.3-4.8-1.8
2016-Sep-21 14:00N 87°00' E 058°00'0 0.0 240 / 141011.3 -4.4-4.8-1.8
2016-Sep-21 13:00N 87°00' E 058°00'0 0.0 230 / 141011.9 -4.4-4.9-1.8
2016-Sep-21 09:00N 87°00' E 058°00'1 0.9 240 / 101013.010.8 -5.1-5.3-1.9
2016-Sep-21 08:00N 87°00' E 058°18'0 0.0 270 / 81013.1 -4.8-7.4-1.8
2016-Sep-21 07:00N 87°00' E 058°18'0 0.0 290 / 61013.1 -4.8-7.0-1.8
2016-Sep-21 06:00N 87°00' E 058°18'0 0.3 290 / 101013.0 5.4 -4.6-7.9-1.9
2016-Sep-21 05:00N 87°00' E 058°12'0 0.3 310 / 121012.5 -4.6-7.0-1.9
2016-Sep-21 04:00N 87°00' E 058°18'0 0.3 300 / 141012.3 -4.9-6.4-1.8
2016-Sep-21 03:00N 87°00' E 058°12'0 0.0 300 / 121012.110.8 -5.2-5.9-1.8
2016-Sep-21 02:00N 87°00' E 058°12'0 0.0 300 / 121011.8 -5.1-5.6-1.8
2016-Sep-21 01:00N 87°00' E 058°12'0 0.0 300 / 121011.6 -5.2-5.6-1.8
2016-Sep-21 00:00N 87°00' E 058°12'0 0.0 320 / 141011.2 -5.4-5.9-1.7
2016-Sep-20 23:00N 87°00' E 058°12'0 0.0 320 / 141010.8 -5.5-6.2-1.8
2016-Sep-20 22:00N 87°00' E 058°12'0 0.0 320 / 161010.1 -5.7-6.3-1.8
2016-Sep-20 21:00N 87°00' E 058°12'5 4.7 330 / 161009.6 -6.0-6.7-1.9
2016-Sep-20 20:00N 87°00' E 059°42'6 6.2 340 / 161008.6 -7.2-8.4-1.9
2016-Sep-20 19:00N 86°54' E 060°12'6 6.0 340 / 191007.6 -7.6-8.0-1.9
2016-Sep-20 18:00N 86°48' E 060°18'6 6.3 340 / 211006.8 -7.7-8.2-1.9
2016-Sep-20 17:00N 86°42' E 060°54'1 0.7 330 / 211005.8 -7.2-7.9-1.9
2016-Sep-20 16:00N 86°42' E 061°06'0 0.0 330 / 211005.1 -6.8-7.7-1.8
2016-Sep-20 15:00N 86°42' E 061°06'0 0.0 330 / 211004.4 5.4 -6.4-7.2-1.8
2016-Sep-20 14:00N 86°42' E 061°06'0 0.0 330 / 231003.8 -6.5-7.3-1.8
2016-Sep-20 13:00N 86°42' E 061°06'0 0.0 330 / 211003.3 -6.5-7.4-1.8
2016-Sep-20 12:00N 86°42' E 061°06'   340 / 191002.6 5.4 -6.6-7.9-1.7

Dump ship's entire track history